Time;durP1;ratioP1;P1;durP2;ratioP2;P2;SDS_P1;SDS_P2;PMS_P1;PMS_P2;Temp;Humidity;BMP_temperature;BMP_pressure;BME280_temperature;BME280_humidity;BME280_pressure;Samples;Min_cycle;Max_cycle;Signal;HPM_P1;HPM_P2
2022/03/04 00:00:48;;;;;;;3.80;1.08;;;26.10;99.90;;;;;;5032117;28;20025;-75
2022/03/04 00:03:15;;;;;;;3.97;0.50;;;25.90;99.90;;;;;;5033088;28;20084;-73
2022/03/04 00:05:43;;;;;;;4.00;0.60;;;25.80;99.90;;;;;;5026065;28;20033;-72
2022/03/04 00:08:10;;;;;;;8.27;1.33;;;26.10;99.90;;;;;;5031009;28;20112;-74
2022/03/04 00:10:38;;;;;;;4.18;1.42;;;26.40;99.90;;;;;;5031060;28;20040;-73
2022/03/04 00:13:06;;;;;;;3.17;0.90;;;26.90;99.90;;;;;;5032730;28;20029;-75
2022/03/04 00:15:34;;;;;;;4.53;1.10;;;27.20;99.90;;;;;;5028069;28;20045;-72
2022/03/04 00:18:02;;;;;;;4.00;0.57;;;27.50;99.90;;;;;;5032571;28;20653;-76
2022/03/04 00:20:29;;;;;;;1.38;0.40;;;27.80;99.90;;;;;;5022982;28;20025;-74
2022/03/04 00:22:56;;;;;;;3.22;0.93;;;28.30;99.90;;;;;;5032491;28;20048;-74
2022/03/04 00:25:24;;;;;;;2.17;0.20;;;28.70;99.90;;;;;;5031497;28;20022;-72
2022/03/04 00:27:51;;;;;;;6.47;0.60;;;29.00;99.90;;;;;;5033369;28;20060;-73
2022/03/04 00:30:19;;;;;;;2.78;0.40;;;28.90;99.90;;;;;;5026874;28;20049;-73
2022/03/04 00:32:47;;;;;;;3.47;0.40;;;28.90;99.90;;;;;;5026675;28;20034;-74
2022/03/04 00:35:14;;;;;;;2.22;0.40;;;28.70;99.90;;;;;;5025708;28;20048;-73
2022/03/04 00:37:42;;;;;;;1.45;0.38;;;29.00;99.90;;;;;;5024931;28;20053;-73
2022/03/04 00:40:10;;;;;;;1.10;0.10;;;29.20;99.90;;;;;;5027888;28;20020;-73
2022/03/04 00:42:38;;;;;;;3.33;0.32;;;28.90;99.90;;;;;;5032092;28;20036;-72
2022/03/04 00:45:06;;;;;;;2.92;0.38;;;28.30;99.90;;;;;;5028925;28;20021;-72
2022/03/04 00:47:33;;;;;;;2.03;0.50;;;27.80;99.90;;;;;;5028817;28;20396;-72
2022/03/04 00:50:04;;;;;;;1.30;0.35;;;27.20;99.90;;;;;;5028772;28;20099;-73
2022/03/04 00:52:31;;;;;;;2.85;0.20;;;26.70;99.90;;;;;;5031534;28;20037;-71
2022/03/04 00:55:00;;;;;;;1.67;0.20;;;26.70;99.90;;;;;;5028243;28;20033;-72
2022/03/04 00:57:28;;;;;;;1.65;0.50;;;27.00;99.90;;;;;;5022732;28;20048;-74
2022/03/04 00:59:56;;;;;;;4.80;0.60;;;27.60;99.90;;;;;;5021897;28;20033;-73
2022/03/04 01:02:24;;;;;;;6.57;0.52;;;28.20;99.90;;;;;;5024588;28;20091;-72
2022/03/04 01:04:51;;;;;;;1.20;0.32;;;28.70;99.90;;;;;;5025654;28;20168;-72
2022/03/04 01:07:18;;;;;;;2.85;0.22;;;29.30;99.90;;;;;;5027000;28;20029;-73
2022/03/04 01:09:46;;;;;;;1.40;0.75;;;29.80;99.90;;;;;;5024804;28;20022;-74
2022/03/04 01:12:13;;;;;;;0.55;0.20;;;30.00;99.90;;;;;;5022748;28;20381;-74
2022/03/04 01:14:41;;;;;;;1.45;0.22;;;29.80;99.90;;;;;;5023504;28;20034;-73
2022/03/04 01:17:08;;;;;;;3.97;0.38;;;29.60;99.90;;;;;;5025021;28;20477;-73
2022/03/04 01:19:35;;;;;;;5.18;0.57;;;29.50;99.90;;;;;;5022476;28;20101;-73
2022/03/04 01:22:03;;;;;;;2.90;0.45;;;29.70;99.90;;;;;;5029910;28;20559;-72
2022/03/04 01:24:30;;;;;;;1.55;0.25;;;30.20;99.90;;;;;;5021083;28;20025;-71
2022/03/04 01:26:58;;;;;;;3.53;0.30;;;30.40;99.90;;;;;;5024047;28;20075;-72
2022/03/04 01:29:25;;;;;;;1.58;0.10;;;30.40;99.90;;;;;;5029571;28;20062;-72
2022/03/04 01:31:52;;;;;;;1.73;0.30;;;29.80;99.90;;;;;;5027216;28;20060;-73
2022/03/04 01:34:19;;;;;;;0.38;0.15;;;29.00;99.90;;;;;;5022844;28;20101;-74
2022/03/04 01:36:47;;;;;;;0.17;0.10;;;28.40;99.90;;;;;;5017324;28;20040;-73
2022/03/04 01:39:14;;;;;;;1.40;0.10;;;28.20;99.90;;;;;;5022554;28;20120;-74
2022/03/04 01:41:41;;;;;;;0.98;0.28;;;28.50;99.90;;;;;;5023370;28;20139;-75
2022/03/04 01:44:09;;;;;;;1.33;0.30;;;28.80;99.90;;;;;;5023025;28;20384;-74
2022/03/04 01:46:36;;;;;;;2.83;0.55;;;29.20;99.90;;;;;;5021966;28;20484;-74
2022/03/04 01:49:04;;;;;;;1.83;0.50;;;30.00;99.90;;;;;;5022148;28;20102;-73
2022/03/04 01:51:32;;;;;;;0.80;0.10;;;30.30;99.90;;;;;;5028114;28;20101;-75
2022/03/04 01:53:59;;;;;;;1.17;0.10;;;29.70;99.90;;;;;;5030932;28;20025;-75
2022/03/04 01:56:26;;;;;;;0.28;0.20;;;29.40;99.90;;;;;;5029575;28;20045;-75
2022/03/04 01:58:54;;;;;;;1.40;0.20;;;29.20;99.90;;;;;;5029409;28;20047;-76
2022/03/04 02:01:21;;;;;;;0.47;0.20;;;29.10;99.90;;;;;;5024885;28;20145;-75
2022/03/04 02:03:49;;;;;;;0.55;0.17;;;29.00;99.90;;;;;;5024246;28;20420;-73
2022/03/04 02:06:17;;;;;;;0.80;0.10;;;29.50;99.90;;;;;;5028898;28;20103;-74
2022/03/04 02:08:44;;;;;;;0.50;0.10;;;29.60;99.90;;;;;;5029447;28;20028;-73
2022/03/04 02:11:12;;;;;;;0.45;0.10;;;29.70;99.90;;;;;;5026852;28;20056;-73
2022/03/04 02:13:39;;;;;;;0.60;0.08;;;30.00;99.90;;;;;;5030033;28;20196;-73
2022/03/04 02:16:16;;;;;;;0.80;0.10;;;30.10;99.90;;;;;;5028393;28;20133;-72
2022/03/04 02:18:43;;;;;;;2.05;0.40;;;30.50;99.90;;;;;;5021783;28;20607;-72
2022/03/04 02:21:13;;;;;;;1.17;0.20;;;30.70;99.90;;;;;;5022083;28;20024;-73
2022/03/04 02:23:41;;;;;;;1.83;0.20;;;30.50;99.90;;;;;;5027180;28;20386;-75
2022/03/04 02:26:08;;;;;;;1.15;0.10;;;30.10;99.90;;;;;;5028704;28;20213;-76
2022/03/04 02:28:36;;;;;;;2.72;0.20;;;29.60;99.90;;;;;;5027441;28;20056;-73
2022/03/04 02:31:03;;;;;;;2.20;0.20;;;29.80;99.90;;;;;;5029465;28;20033;-71
2022/03/04 02:33:30;;;;;;;0.43;0.00;;;30.40;99.90;;;;;;5029520;28;20033;-72
2022/03/04 02:35:58;;;;;;;0.95;0.10;;;30.80;99.90;;;;;;5028739;28;20045;-73
2022/03/04 02:38:25;;;;;;;0.73;0.05;;;30.70;99.90;;;;;;5020007;28;20037;-73
2022/03/04 02:40:52;;;;;;;0.70;0.20;;;30.40;99.90;;;;;;5024909;28;20116;-72
2022/03/04 02:43:20;;;;;;;2.67;0.30;;;30.40;99.90;;;;;;5027493;28;20056;-73
2022/03/04 02:45:47;;;;;;;0.80;0.10;;;30.30;99.90;;;;;;5030164;28;20116;-74
2022/03/04 02:48:14;;;;;;;0.82;0.10;;;30.30;99.90;;;;;;5028430;28;20928;-74
2022/03/04 02:50:42;;;;;;;0.40;0.20;;;30.00;99.90;;;;;;5027682;28;20029;-73
2022/03/04 02:53:09;;;;;;;1.23;0.20;;;29.90;99.90;;;;;;5026357;28;20025;-74
2022/03/04 02:55:37;;;;;;;1.65;0.30;;;30.00;99.90;;;;;;5029823;28;20029;-73
2022/03/04 02:58:05;;;;;;;0.20;0.10;;;30.30;99.90;;;;;;5030786;28;20090;-73
2022/03/04 03:00:32;;;;;;;0.52;0.10;;;30.40;99.90;;;;;;5028911;28;20060;-73
2022/03/04 03:02:59;;;;;;;1.05;0.10;;;30.40;99.90;;;;;;5026387;28;20039;-72
2022/03/04 03:05:27;;;;;;;2.95;0.10;;;30.60;99.90;;;;;;5027073;28;20037;-74
2022/03/04 03:07:55;;;;;;;0.60;0.10;;;30.30;99.90;;;;;;5023521;28;20425;-74
2022/03/04 03:10:22;;;;;;;0.70;0.55;;;29.60;99.90;;;;;;5019524;28;20079;-73
2022/03/04 03:12:49;;;;;;;0.43;0.20;;;29.50;99.90;;;;;;5020966;28;20057;-74
2022/03/04 03:15:17;;;;;;;0.30;0.20;;;29.80;99.90;;;;;;5019282;28;20036;-73
2022/03/04 03:17:44;;;;;;;0.50;0.10;;;30.40;99.90;;;;;;5022088;28;20068;-73
2022/03/04 03:20:12;;;;;;;0.63;0.00;;;30.80;99.90;;;;;;5026902;28;20456;-72
2022/03/04 03:22:39;;;;;;;1.17;0.75;;;31.20;99.90;;;;;;5021232;28;20030;-72
2022/03/04 03:25:07;;;;;;;3.60;0.20;;;31.30;99.90;;;;;;5018709;28;20017;-72
2022/03/04 03:27:35;;;;;;;1.83;0.80;;;31.70;99.90;;;;;;5017553;28;20456;-73
2022/03/04 03:30:03;;;;;;;1.48;0.10;;;31.80;99.90;;;;;;5018839;28;20107;-72
2022/03/04 03:32:31;;;;;;;1.85;0.17;;;31.40;99.90;;;;;;5019657;28;20431;-72
2022/03/04 03:34:58;;;;;;;0.98;0.17;;;31.00;99.90;;;;;;5026115;28;20341;-74
2022/03/04 03:37:26;;;;;;;1.90;0.20;;;30.10;99.90;;;;;;5027668;28;20534;-72
2022/03/04 03:39:54;;;;;;;0.15;0.10;;;29.20;99.90;;;;;;5025941;28;20034;-74
2022/03/04 03:42:21;;;;;;;0.68;0.20;;;28.00;99.90;;;;;;5024650;28;20066;-73
2022/03/04 03:44:48;;;;;;;1.42;0.20;;;27.30;99.90;;;;;;5027782;28;20030;-72
2022/03/04 03:47:16;;;;;;;0.93;0.28;;;26.90;99.90;;;;;;5025851;28;20021;-72
2022/03/04 03:49:43;;;;;;;0.75;0.10;;;26.80;99.90;;;;;;5029549;28;20088;-72
2022/03/04 03:52:10;;;;;;;0.40;0.20;;;26.80;99.90;;;;;;5017802;28;20029;-73
2022/03/04 03:54:38;;;;;;;2.50;0.20;;;26.90;99.90;;;;;;5024230;28;20025;-74
2022/03/04 03:57:05;;;;;;;1.40;0.40;;;26.90;99.90;;;;;;5023534;28;20079;-73
2022/03/04 03:59:32;;;;;;;3.92;0.30;;;26.90;99.90;;;;;;5028326;28;20041;-72
2022/03/04 04:02:00;;;;;;;1.55;0.20;;;27.00;99.90;;;;;;5029475;28;20029;-73
2022/03/04 04:04:27;;;;;;;2.33;0.30;;;26.80;99.90;;;;;;5027979;28;20021;-76
2022/03/04 04:06:54;;;;;;;1.65;0.25;;;26.40;99.90;;;;;;5026628;28;20025;-77
2022/03/04 04:09:21;;;;;;;2.80;0.52;;;26.20;99.90;;;;;;5030500;28;20018;-74
2022/03/04 04:11:49;;;;;;;2.33;0.20;;;25.90;99.90;;;;;;5027698;28;20104;-74
2022/03/04 04:14:16;;;;;;;0.95;0.10;;;26.00;99.90;;;;;;5032259;28;20104;-75
2022/03/04 04:16:43;;;;;;;2.35;0.43;;;26.10;99.90;;;;;;5029145;28;20029;-75
2022/03/04 04:19:11;;;;;;;2.60;0.25;;;26.30;99.90;;;;;;5031146;28;20026;-75
2022/03/04 04:21:38;;;;;;;3.63;0.28;;;26.40;99.90;;;;;;5030515;28;20022;-75
2022/03/04 04:24:06;;;;;;;1.15;0.22;;;26.50;99.90;;;;;;5032239;28;20427;-76
2022/03/04 04:26:33;;;;;;;0.70;0.22;;;26.60;99.90;;;;;;5031831;28;20018;-75
2022/03/04 04:29:01;;;;;;;1.58;0.47;;;26.70;99.90;;;;;;5027020;28;20050;-75
2022/03/04 04:31:28;;;;;;;1.80;0.70;;;26.70;99.90;;;;;;5031795;28;20029;-75
2022/03/04 04:33:55;;;;;;;1.67;0.13;;;26.80;99.90;;;;;;5030160;28;20081;-74
2022/03/04 04:36:23;;;;;;;0.25;0.10;;;26.90;99.90;;;;;;5030332;28;20137;-75
2022/03/04 04:38:50;;;;;;;0.95;0.30;;;27.00;99.90;;;;;;5029047;28;20088;-74
2022/03/04 04:41:18;;;;;;;2.15;0.40;;;27.10;99.90;;;;;;5026590;28;20099;-73
2022/03/04 04:43:45;;;;;;;2.75;0.28;;;27.00;99.90;;;;;;5030154;28;20037;-73
2022/03/04 04:46:13;;;;;;;1.20;0.22;;;27.10;99.90;;;;;;5031688;28;20353;-74
2022/03/04 04:48:40;;;;;;;1.63;0.65;;;27.20;99.90;;;;;;5031205;28;20028;-73
2022/03/04 04:51:08;;;;;;;3.17;0.98;;;27.30;99.90;;;;;;5025716;28;20409;-73
2022/03/04 04:53:36;;;;;;;6.57;0.88;;;27.50;99.90;;;;;;5024469;28;20044;-72
2022/03/04 04:56:04;;;;;;;1.98;0.30;;;27.60;99.90;;;;;;5022508;28;20591;-74
2022/03/04 04:58:33;;;;;;;1.30;0.30;;;27.60;99.90;;;;;;5024020;28;20361;-75
2022/03/04 05:01:00;;;;;;;1.33;0.68;;;27.60;99.90;;;;;;5031617;28;20061;-74
2022/03/04 05:03:28;;;;;;;1.35;0.10;;;27.50;99.90;;;;;;5024890;28;20115;-73
2022/03/04 05:05:57;;;;;;;1.77;0.13;;;27.10;99.90;;;;;;5025949;28;20388;-73
2022/03/04 05:08:27;;;;;;;0.70;0.10;;;26.90;99.90;;;;;;5028990;28;20412;-73
2022/03/04 05:10:54;;;;;;;0.20;0.13;;;26.80;99.90;;;;;;5022007;28;20030;-72
2022/03/04 05:13:22;;;;;;;0.20;0.20;;;26.70;99.90;;;;;;5022616;28;20336;-74
2022/03/04 05:15:49;;;;;;;1.17;0.35;;;26.80;99.90;;;;;;5020285;28;20052;-73
2022/03/04 05:18:17;;;;;;;0.17;0.10;;;26.90;99.90;;;;;;5024526;28;20044;-74
2022/03/04 05:20:44;;;;;;;0.88;0.10;;;27.00;99.90;;;;;;5024529;28;20033;-74
2022/03/04 05:23:58;;;;;;;3.85;0.43;;;27.10;99.90;;;;;;5027654;28;20034;-72
2022/03/04 05:25:59;;;;;;;1.92;0.52;;;27.30;99.90;;;;;;5020784;28;20029;-72
2022/03/04 05:28:26;;;;;;;0.73;0.10;;;27.40;99.90;;;;;;5027587;28;20473;-73
2022/03/04 05:30:54;;;;;;;1.58;0.30;;;27.40;99.90;;;;;;5027839;28;20128;-74
2022/03/04 05:33:21;;;;;;;1.00;0.20;;;27.60;99.90;;;;;;5025680;28;20026;-72
2022/03/04 05:35:48;;;;;;;0.10;0.10;;;27.60;99.90;;;;;;5021474;28;20121;-74
2022/03/04 05:38:16;;;;;;;1.42;0.35;;;27.40;99.90;;;;;;5031139;28;20124;-73
2022/03/04 05:40:43;;;;;;;0.10;0.10;;;27.10;99.90;;;;;;5025447;28;20395;-73
2022/03/04 05:43:11;;;;;;;2.35;0.28;;;26.80;99.90;;;;;;5023073;28;20032;-72
2022/03/04 05:45:38;;;;;;;0.30;0.20;;;26.50;99.90;;;;;;5022799;28;20032;-72
2022/03/04 05:48:07;;;;;;;0.35;0.20;;;26.40;99.90;;;;;;5022736;28;20056;-73
2022/03/04 05:50:34;;;;;;;0.10;0.00;;;26.40;99.90;;;;;;5029638;28;20095;-74
2022/03/04 05:53:01;;;;;;;0.95;0.52;;;26.70;99.90;;;;;;5030892;28;20021;-74
2022/03/04 05:55:29;;;;;;;0.85;0.45;;;27.00;99.90;;;;;;5029143;28;20026;-76
2022/03/04 05:57:56;;;;;;;0.35;0.15;;;27.30;99.90;;;;;;5031649;28;20495;-75
2022/03/04 06:00:25;;;;;;;1.17;0.28;;;27.30;99.90;;;;;;5022313;28;20211;-74
2022/03/04 06:02:53;;;;;;;1.80;0.22;;;27.20;99.90;;;;;;5022340;28;20110;-75
2022/03/04 06:05:24;;;;;;;3.70;0.25;;;27.30;99.90;;;;;;5023332;28;20467;-76
2022/03/04 06:07:51;;;;;;;0.43;0.20;;;27.50;99.90;;;;;;5021733;28;20436;-74
2022/03/04 06:10:19;;;;;;;2.92;0.47;;;27.60;99.90;;;;;;5021787;28;20069;-75
2022/03/04 06:12:46;;;;;;;0.22;0.10;;;27.60;99.90;;;;;;5022628;28;20033;-72
2022/03/04 06:15:13;;;;;;;2.42;0.30;;;27.40;99.90;;;;;;5021339;28;20510;-72
2022/03/04 06:17:47;;;;;;;2.22;0.22;;;27.10;99.90;;;;;;5022366;28;20061;-73
2022/03/04 06:20:16;;;;;;;0.85;0.20;;;26.80;99.90;;;;;;5025736;28;20026;-73
2022/03/04 06:22:44;;;;;;;0.32;0.13;;;26.60;99.90;;;;;;5022963;28;20037;-73
2022/03/04 06:25:14;;;;;;;0.52;0.20;;;26.40;99.90;;;;;;5022069;28;20507;-73
2022/03/04 06:27:57;;;;;;;2.03;0.93;;;26.40;99.90;;;;;;5022467;28;20057;-74
2022/03/04 06:30:26;;;;;;;3.25;0.30;;;26.30;99.90;;;;;;5021099;28;20118;-72
2022/03/04 06:33:30;;;;;;;1.83;0.43;;;26.30;99.90;;;;;;5022357;28;20022;-73
2022/03/04 06:35:43;;;;;;;2.58;0.43;;;26.30;99.90;;;;;;5021375;28;20036;-76
2022/03/04 06:38:11;;;;;;;1.48;0.40;;;26.20;99.90;;;;;;5022365;28;20361;-74
2022/03/04 06:40:38;;;;;;;1.67;0.45;;;26.10;99.90;;;;;;5020168;28;20464;-74
2022/03/04 06:43:06;;;;;;;2.00;0.40;;;25.90;99.90;;;;;;5020857;28;20048;-73
2022/03/04 06:45:34;;;;;;;2.83;0.50;;;25.70;99.90;;;;;;5026780;28;20026;-72
2022/03/04 06:48:02;;;;;;;2.17;0.43;;;25.40;99.90;;;;;;5027482;28;20029;-73
2022/03/04 06:50:29;;;;;;;3.20;0.93;;;25.20;99.90;;;;;;5026081;28;20021;-73
2022/03/04 06:52:56;;;;;;;4.38;0.60;;;25.10;99.90;;;;;;5028241;28;20041;-74
2022/03/04 06:55:24;;;;;;;1.27;0.35;;;25.10;99.90;;;;;;5028996;28;20192;-73
2022/03/04 06:57:54;;;;;;;2.78;0.77;;;25.00;99.90;;;;;;5031155;28;20073;-75
2022/03/04 07:00:22;;;;;;;4.30;1.10;;;25.20;99.90;;;;;;5029150;28;20017;-75
2022/03/04 07:02:49;;;;;;;5.97;0.90;;;25.20;99.90;;;;;;5031232;28;20029;-76
2022/03/04 07:05:17;;;;;;;2.53;0.60;;;25.30;99.90;;;;;;5026300;28;20376;-74
2022/03/04 07:07:45;;;;;;;1.08;0.35;;;25.30;99.90;;;;;;5029422;28;20044;-77
2022/03/04 07:10:12;;;;;;;4.28;0.70;;;25.30;99.90;;;;;;5027923;28;20056;-74
2022/03/04 07:12:39;;;;;;;0.63;0.30;;;25.20;99.90;;;;;;5030336;28;20125;-76
2022/03/04 07:15:07;;;;;;;3.03;0.98;;;25.10;99.90;;;;;;5030768;28;20116;-74
2022/03/04 07:17:35;;;;;;;4.07;1.35;;;25.10;99.90;;;;;;5023672;28;20072;-76
2022/03/04 07:20:04;;;;;;;1.75;1.13;;;25.10;99.90;;;;;;5025703;28;20024;-75
2022/03/04 07:22:32;;;;;;;2.00;0.35;;;25.20;99.90;;;;;;5030890;28;20117;-76
2022/03/04 07:24:59;;;;;;;1.35;0.60;;;25.20;99.90;;;;;;5028126;28;20487;-75
2022/03/04 07:27:26;;;;;;;1.20;0.40;;;25.30;99.90;;;;;;5030297;28;20029;-77
2022/03/04 07:29:53;;;;;;;0.70;0.30;;;25.30;99.90;;;;;;5023023;28;20049;-74
2022/03/04 07:32:22;;;;;;;1.35;0.40;;;25.30;99.90;;;;;;5030487;28;20035;-75
2022/03/04 07:34:49;;;;;;;1.75;0.35;;;25.40;99.90;;;;;;5030608;28;20079;-76
2022/03/04 07:37:17;;;;;;;1.35;0.30;;;25.40;99.90;;;;;;5029781;28;20051;-76
2022/03/04 07:39:44;;;;;;;1.55;0.30;;;25.40;99.90;;;;;;5028845;28;20488;-75
2022/03/04 07:42:11;;;;;;;0.75;0.20;;;25.30;99.90;;;;;;5026383;28;20036;-74
2022/03/04 07:44:39;;;;;;;2.25;0.50;;;25.20;99.90;;;;;;5030447;28;20025;-77
2022/03/04 07:47:06;;;;;;;1.95;0.30;;;25.10;99.90;;;;;;5024088;28;20034;-75
2022/03/04 07:49:33;;;;;;;2.28;0.38;;;25.00;99.90;;;;;;5026244;28;20025;-73
2022/03/04 07:52:01;;;;;;;0.25;0.10;;;25.00;99.90;;;;;;5034481;28;20033;-76
2022/03/04 07:54:28;;;;;;;2.03;0.50;;;25.00;99.90;;;;;;5032418;28;20047;-74
2022/03/04 07:56:56;;;;;;;2.38;0.40;;;24.90;99.90;;;;;;5032866;28;20114;-75
2022/03/04 07:59:23;;;;;;;1.45;0.30;;;25.00;99.90;;;;;;5032284;28;20029;-74
2022/03/04 08:01:50;;;;;;;0.40;0.20;;;24.90;99.90;;;;;;5032182;28;20537;-74
2022/03/04 08:04:17;;;;;;;2.05;0.50;;;24.90;99.90;;;;;;5033590;28;20025;-75
2022/03/04 08:06:45;;;;;;;1.70;0.30;;;24.80;99.90;;;;;;5030903;28;20030;-73
2022/03/04 08:09:12;;;;;;;0.68;0.40;;;24.70;99.90;;;;;;5031733;28;20040;-74
2022/03/04 08:11:39;;;;;;;1.90;0.40;;;24.60;99.90;;;;;;5032406;28;20037;-73
2022/03/04 08:14:07;;;;;;;2.53;0.60;;;24.50;99.90;;;;;;5033101;28;20041;-73
2022/03/04 08:16:35;;;;;;;2.17;0.35;;;24.40;99.90;;;;;;5032126;28;20116;-73
2022/03/04 08:19:03;;;;;;;1.25;0.30;;;24.50;99.90;;;;;;5027995;28;20144;-73
2022/03/04 08:21:30;;;;;;;2.95;1.35;;;24.50;99.90;;;;;;5031114;28;20103;-73
2022/03/04 08:23:58;;;;;;;0.95;0.30;;;24.40;99.90;;;;;;5025673;28;20034;-74
2022/03/04 08:26:25;;;;;;;1.88;0.60;;;24.50;99.90;;;;;;5023219;28;20030;-74
2022/03/04 08:28:53;;;;;;;1.90;0.52;;;24.50;99.90;;;;;;5023272;28;20041;-73
2022/03/04 08:31:20;;;;;;;2.03;0.20;;;24.60;99.90;;;;;;5023931;28;20030;-73
2022/03/04 08:33:47;;;;;;;1.55;0.30;;;24.50;99.90;;;;;;5025739;28;20030;-74
2022/03/04 08:36:15;;;;;;;5.38;0.98;;;24.50;99.90;;;;;;5023515;28;20435;-76
2022/03/04 08:38:43;;;;;;;1.50;0.30;;;24.50;99.90;;;;;;5026569;28;20041;-74
2022/03/04 08:41:10;;;;;;;1.23;0.20;;;24.50;99.90;;;;;;5028749;28;20025;-74
2022/03/04 08:43:39;;;;;;;3.83;0.40;;;24.50;99.90;;;;;;5029255;28;20110;-74
2022/03/04 08:46:07;;;;;;;2.20;0.63;;;24.50;99.90;;;;;;5031397;28;20036;-76
2022/03/04 08:48:34;;;;;;;3.45;0.40;;;24.40;99.90;;;;;;5032139;28;20098;-75
2022/03/04 08:51:01;;;;;;;0.95;0.30;;;24.40;99.90;;;;;;5031442;28;20025;-75
2022/03/04 08:53:29;;;;;;;0.73;0.20;;;24.30;99.90;;;;;;5026906;28;20035;-75
2022/03/04 08:55:56;;;;;;;4.22;1.27;;;24.30;99.90;;;;;;5029190;28;20037;-74
2022/03/04 08:58:24;;;;;;;3.22;0.60;;;24.30;99.90;;;;;;5030434;28;20385;-73
2022/03/04 09:00:51;;;;;;;2.42;0.60;;;24.30;99.90;;;;;;5027940;28;20025;-73
2022/03/04 09:03:19;;;;;;;1.00;0.60;;;24.30;99.90;;;;;;5028287;28;20041;-76
2022/03/04 09:05:46;;;;;;;1.63;0.95;;;24.20;99.90;;;;;;5025897;28;20026;-77
2022/03/04 09:08:14;;;;;;;5.35;0.40;;;24.20;99.90;;;;;;5029659;28;20037;-74
2022/03/04 09:10:41;;;;;;;3.00;1.00;;;24.20;99.90;;;;;;5030889;28;20029;-73
2022/03/04 09:13:09;;;;;;;2.15;0.70;;;24.20;99.90;;;;;;5029544;28;20063;-74
2022/03/04 09:15:36;;;;;;;2.15;0.30;;;24.30;99.90;;;;;;5029099;28;20037;-73
2022/03/04 09:18:04;;;;;;;0.88;0.40;;;24.30;99.90;;;;;;5031349;28;20429;-73
2022/03/04 09:20:31;;;;;;;2.95;0.50;;;24.30;99.90;;;;;;5030711;28;20029;-73
2022/03/04 09:22:58;;;;;;;1.67;0.40;;;24.30;99.90;;;;;;5031248;28;20071;-73
2022/03/04 09:25:28;;;;;;;4.20;0.50;;;24.30;99.90;;;;;;5029102;28;20029;-73
2022/03/04 09:27:56;;;;;;;4.10;0.30;;;24.30;99.90;;;;;;5025087;28;20168;-73
2022/03/04 09:30:23;;;;;;;2.10;0.40;;;24.30;99.90;;;;;;5019339;28;20091;-72
2022/03/04 09:32:51;;;;;;;2.97;0.68;;;24.30;99.90;;;;;;5025758;28;20412;-73
2022/03/04 09:35:18;;;;;;;1.08;0.35;;;24.30;99.90;;;;;;5022213;28;20081;-73
2022/03/04 09:37:46;;;;;;;1.95;0.28;;;24.30;99.90;;;;;;5022251;28;20114;-73
2022/03/04 09:40:13;;;;;;;4.30;0.98;;;24.20;99.90;;;;;;5022334;28;20461;-72
2022/03/04 09:42:41;;;;;;;2.90;0.77;;;24.00;99.90;;;;;;5020017;28;20451;-72
2022/03/04 09:45:09;;;;;;;4.63;0.75;;;24.00;99.90;;;;;;5019922;28;20519;-74
2022/03/04 09:47:37;;;;;;;3.22;0.88;;;23.80;99.90;;;;;;5022695;28;20025;-73
2022/03/04 09:50:07;;;;;;;2.38;0.60;;;23.60;99.90;;;;;;5020835;28;20100;-73
2022/03/04 09:52:34;;;;;;;1.85;0.50;;;23.50;99.90;;;;;;5020017;28;20033;-73
2022/03/04 09:55:02;;;;;;;4.10;0.30;;;23.40;99.90;;;;;;5020159;28;20061;-71
2022/03/04 09:57:29;;;;;;;1.48;0.30;;;23.40;99.90;;;;;;5021504;28;20760;-72
2022/03/04 09:59:57;;;;;;;4.07;0.30;;;23.30;99.90;;;;;;5018833;28;20104;-72
2022/03/04 10:02:25;;;;;;;1.60;0.35;;;23.30;99.90;;;;;;5017331;28;20029;-74
2022/03/04 10:05:00;;;;;;;2.88;0.50;;;23.20;99.90;;;;;;5021444;28;20033;-74
2022/03/04 10:07:27;;;;;;;;;;;23.20;99.90;;;;;;5025001;28;20467;-72
2022/03/04 10:09:57;;;;;;;1.27;0.70;;;23.10;99.90;;;;;;5022735;28;19920;-72
2022/03/04 10:12:24;;;;;;;2.53;0.45;;;23.20;99.90;;;;;;5024649;28;20499;-72
2022/03/04 10:15:07;;;;;;;3.33;0.32;;;23.20;99.90;;;;;;5028489;28;20033;-73
2022/03/04 10:17:38;;;;;;;1.30;0.40;;;23.20;99.90;;;;;;5025883;28;20037;-73
2022/03/04 10:20:12;;;;;;;1.83;0.45;;;23.20;99.90;;;;;;5027299;28;20056;-72
2022/03/04 10:22:45;;;;;;;1.52;0.50;;;23.20;99.90;;;;;;5045647;28;20064;-72
2022/03/04 10:25:26;;;;;;;2.72;0.60;;;23.30;99.90;;;;;;5025061;28;20026;-73
2022/03/04 10:27:53;;;;;;;1.48;0.40;;;23.30;99.90;;;;;;5029166;28;20116;-73
2022/03/04 10:30:36;;;;;;;4.85;0.35;;;23.30;99.90;;;;;;5027760;28;20034;-74
2022/03/04 10:33:08;;;;;;;1.98;0.52;;;23.30;99.90;;;;;;5020771;28;20071;-74
2022/03/04 10:35:37;;;;;;;3.30;0.60;;;23.30;99.90;;;;;;5029944;28;20026;-72
2022/03/04 10:38:05;;;;;;;0.25;0.22;;;23.30;99.90;;;;;;5028626;28;20033;-73
2022/03/04 10:40:43;;;;;;;3.08;0.70;;;23.30;99.90;;;;;;5027779;28;20030;-73
2022/03/04 10:43:12;;;;;;;1.92;0.60;;;23.30;99.90;;;;;;5010624;28;20370;-72
2022/03/04 10:45:44;;;;;;;1.42;0.45;;;23.30;99.90;;;;;;5018974;28;20395;-73
2022/03/04 10:48:19;;;;;;;1.10;0.45;;;23.30;99.90;;;;;;5028237;28;20147;-73
2022/03/04 10:50:49;;;;;;;1.45;0.73;;;23.40;99.90;;;;;;5029644;28;20108;-73
2022/03/04 10:53:22;;;;;;;4.32;1.30;;;23.40;99.90;;;;;;5031379;28;20037;-74
2022/03/04 10:55:59;;;;;;;4.85;0.95;;;23.30;99.90;;;;;;5028031;28;20026;-73
2022/03/04 10:58:28;;;;;;;2.20;0.70;;;23.30;99.90;;;;;;5030492;28;20033;-72
2022/03/04 11:01:19;;;;;;;2.35;0.80;;;23.30;99.90;;;;;;5029358;28;20018;-72
2022/03/04 11:03:47;;;;;;;1.55;0.63;;;23.30;99.90;;;;;;5025370;28;20025;-71
2022/03/04 11:06:16;;;;;;;1.23;0.52;;;23.30;99.90;;;;;;5024448;28;20497;-73
2022/03/04 11:08:45;;;;;;;2.58;1.00;;;23.20;99.90;;;;;;5021230;28;20029;-72
2022/03/04 11:11:13;;;;;;;2.67;0.60;;;23.20;99.90;;;;;;5027247;28;20540;-72
2022/03/04 11:13:42;;;;;;;3.08;0.85;;;23.20;99.90;;;;;;5029270;28;20056;-73
2022/03/04 11:16:09;;;;;;;2.65;0.88;;;23.20;99.90;;;;;;5029470;28;20025;-72
2022/03/04 11:18:37;;;;;;;3.72;1.17;;;23.20;99.90;;;;;;5030358;28;20496;-72
2022/03/04 11:21:06;;;;;;;1.80;0.95;;;23.20;99.90;;;;;;5026828;28;20022;-73
2022/03/04 11:23:35;;;;;;;3.20;1.05;;;23.20;99.90;;;;;;5030179;28;20033;-73
2022/03/04 11:26:17;;;;;;;2.03;1.10;;;23.30;99.90;;;;;;5027063;28;20075;-73
2022/03/04 11:28:50;;;;;;;2.65;1.67;;;23.20;99.90;;;;;;5029374;28;20045;-74
2022/03/04 11:31:23;;;;;;;3.05;1.10;;;23.20;99.90;;;;;;5028579;28;20029;-73
2022/03/04 11:33:54;;;;;;;4.78;1.10;;;23.20;99.90;;;;;;5029062;28;20149;-74
2022/03/04 11:36:25;;;;;;;1.98;1.83;;;23.20;99.90;;;;;;5027100;28;20116;-72
2022/03/04 11:38:55;;;;;;;2.63;1.70;;;23.20;99.90;;;;;;5026961;28;20064;-72
2022/03/04 11:41:35;;;;;;;5.60;1.63;;;23.20;99.90;;;;;;5026764;28;20036;-73
2022/03/04 11:44:18;;;;;;;5.20;1.55;;;23.20;99.90;;;;;;5028789;28;20504;-73
2022/03/04 11:46:51;;;;;;;3.42;1.65;;;23.20;99.90;;;;;;5029113;28;20093;-72
2022/03/04 11:49:31;;;;;;;1.15;0.98;;;23.20;99.90;;;;;;5025175;28;20445;-73
2022/03/04 11:52:21;;;;;;;2.15;0.77;;;23.20;99.90;;;;;;5026368;28;20105;-73
2022/03/04 11:54:51;;;;;;;2.00;1.55;;;23.10;99.90;;;;;;5015048;28;20045;-74
2022/03/04 11:57:30;;;;;;;2.92;1.35;;;23.10;99.90;;;;;;5016733;28;20171;-73
2022/03/04 12:00:01;;;;;;;6.53;1.77;;;23.10;99.90;;;;;;5019806;28;20085;-73
2022/03/04 12:02:46;;;;;;;2.38;1.25;;;23.10;99.90;;;;;;5025493;28;20032;-73
2022/03/04 12:05:19;;;;;;;2.03;1.20;;;23.10;99.90;;;;;;5022631;28;20109;-74
2022/03/04 12:07:48;;;;;;;7.50;2.08;;;23.10;99.90;;;;;;5015974;28;20907;-73
2022/03/04 12:10:20;;;;;;;3.92;1.75;;;23.00;99.90;;;;;;5011755;28;20026;-75
2022/03/04 12:13:06;;;;;;;3.88;1.38;;;23.00;99.90;;;;;;5021340;28;20428;-74
2022/03/04 12:15:39;;;;;;;7.10;1.77;;;23.00;99.90;;;;;;5023662;28;20036;-73
2022/03/04 12:18:26;;;;;;;3.60;1.30;;;23.00;99.90;;;;;;5020825;28;20068;-74
2022/03/04 12:21:10;;;;;;;6.68;1.77;;;23.00;99.90;;;;;;5025337;28;20064;-73
2022/03/04 12:23:43;;;;;;;2.97;1.13;;;23.00;99.90;;;;;;5011917;28;20045;-72
2022/03/04 12:26:17;;;;;;;5.85;1.85;;;23.00;99.90;;;;;;5021558;28;20029;-74
2022/03/04 12:28:46;;;;;;;6.40;1.73;;;23.00;99.90;;;;;;5028642;28;20107;-72
2022/03/04 12:31:18;;;;;;;3.65;2.00;;;23.00;99.90;;;;;;5019459;28;20028;-74
2022/03/04 12:33:50;;;;;;;4.03;1.63;;;22.90;99.90;;;;;;5020508;28;20037;-73
2022/03/04 12:36:18;;;;;;;2.72;1.23;;;23.00;99.90;;;;;;5024662;28;20163;-72
2022/03/04 12:38:58;;;;;;;3.42;1.75;;;23.00;99.90;;;;;;5031324;28;20044;-74
2022/03/04 12:41:28;;;;;;;5.68;1.42;;;22.90;99.90;;;;;;5031578;28;20040;-73
2022/03/04 12:43:58;;;;;;;9.20;2.10;;;22.90;99.90;;;;;;5028596;28;20487;-72
2022/03/04 12:46:35;;;;;;;3.80;1.30;;;22.90;99.90;;;;;;5027842;28;20056;-74
2022/03/04 12:49:04;;;;;;;8.60;1.60;;;22.80;99.90;;;;;;5023266;28;20129;-71
2022/03/04 12:51:39;;;;;;;2.67;1.40;;;22.80;99.90;;;;;;5027667;28;20140;-72
2022/03/04 12:54:13;;;;;;;5.95;2.20;;;22.80;99.90;;;;;;5031247;28;20037;-75
2022/03/04 12:56:41;;;;;;;4.97;2.03;;;22.80;99.90;;;;;;5024138;28;20417;-73